sensor_id;sensor_type;location;lat;lon;timestamp;P1;durP1;ratioP1;P2;durP2;ratioP2
44422;SDS011;31029;40.760;14.022;2022-07-23T00:02:01;478.40;;;433.33;;
44422;SDS011;31029;40.760;14.022;2022-07-23T00:04:27;478.90;;;433.65;;
44422;SDS011;31029;40.760;14.022;2022-07-23T00:06:52;492.25;;;446.88;;
44422;SDS011;31029;40.760;14.022;2022-07-23T00:09:18;476.70;;;431.55;;
44422;SDS011;31029;40.760;14.022;2022-07-23T00:11:44;488.38;;;443.23;;
44422;SDS011;31029;40.760;14.022;2022-07-23T00:14:10;484.08;;;438.90;;
44422;SDS011;31029;40.760;14.022;2022-07-23T00:16:35;484.23;;;438.98;;
44422;SDS011;31029;40.760;14.022;2022-07-23T00:19:01;476.15;;;431.10;;
44422;SDS011;31029;40.760;14.022;2022-07-23T00:21:27;482.77;;;437.65;;
44422;SDS011;31029;40.760;14.022;2022-07-23T00:23:53;478.60;;;433.67;;
44422;SDS011;31029;40.760;14.022;2022-07-23T00:26:19;475.55;;;430.45;;
44422;SDS011;31029;40.760;14.022;2022-07-23T00:28:44;457.25;;;412.25;;
44422;SDS011;31029;40.760;14.022;2022-07-23T00:31:10;479.65;;;434.45;;
44422;SDS011;31029;40.760;14.022;2022-07-23T00:33:36;483.02;;;437.83;;
44422;SDS011;31029;40.760;14.022;2022-07-23T00:36:01;484.60;;;439.25;;
44422;SDS011;31029;40.760;14.022;2022-07-23T00:38:27;472.33;;;427.33;;
44422;SDS011;31029;40.760;14.022;2022-07-23T00:40:52;473.13;;;427.92;;
44422;SDS011;31029;40.760;14.022;2022-07-23T00:43:22;473.08;;;427.85;;
44422;SDS011;31029;40.760;14.022;2022-07-23T00:45:49;479.20;;;433.85;;
44422;SDS011;31029;40.760;14.022;2022-07-23T00:48:15;476.75;;;431.50;;
44422;SDS011;31029;40.760;14.022;2022-07-23T00:50:41;484.33;;;438.70;;
44422;SDS011;31029;40.760;14.022;2022-07-23T00:53:07;488.25;;;442.40;;
44422;SDS011;31029;40.760;14.022;2022-07-23T00:55:34;479.50;;;434.13;;
44422;SDS011;31029;40.760;14.022;2022-07-23T00:57:59;491.90;;;446.15;;
44422;SDS011;31029;40.760;14.022;2022-07-23T01:00:26;479.13;;;433.77;;
44422;SDS011;31029;40.760;14.022;2022-07-23T01:02:51;481.40;;;435.83;;
44422;SDS011;31029;40.760;14.022;2022-07-23T01:05:16;474.15;;;428.80;;
44422;SDS011;31029;40.760;14.022;2022-07-23T01:07:50;483.27;;;437.95;;
44422;SDS011;31029;40.760;14.022;2022-07-23T01:10:16;480.83;;;435.45;;
44422;SDS011;31029;40.760;14.022;2022-07-23T01:13:03;466.27;;;421.30;;
44422;SDS011;31029;40.760;14.022;2022-07-23T01:15:29;484.75;;;439.67;;
44422;SDS011;31029;40.760;14.022;2022-07-23T01:17:55;464.08;;;419.17;;
44422;SDS011;31029;40.760;14.022;2022-07-23T01:20:21;474.55;;;429.52;;
44422;SDS011;31029;40.760;14.022;2022-07-23T01:22:47;479.02;;;433.33;;
44422;SDS011;31029;40.760;14.022;2022-07-23T01:25:13;487.15;;;441.55;;
44422;SDS011;31029;40.760;14.022;2022-07-23T01:27:38;486.80;;;441.33;;
44422;SDS011;31029;40.760;14.022;2022-07-23T01:30:04;473.70;;;428.25;;
44422;SDS011;31029;40.760;14.022;2022-07-23T01:32:29;470.77;;;425.75;;
44422;SDS011;31029;40.760;14.022;2022-07-23T01:34:55;483.73;;;438.35;;
44422;SDS011;31029;40.760;14.022;2022-07-23T01:37:20;481.95;;;436.48;;
44422;SDS011;31029;40.760;14.022;2022-07-23T01:39:46;487.70;;;442.02;;
44422;SDS011;31029;40.760;14.022;2022-07-23T01:42:12;478.77;;;433.65;;
44422;SDS011;31029;40.760;14.022;2022-07-23T01:44:38;475.60;;;430.33;;
44422;SDS011;31029;40.760;14.022;2022-07-23T01:47:04;492.77;;;447.40;;
44422;SDS011;31029;40.760;14.022;2022-07-23T01:49:29;475.20;;;430.00;;
44422;SDS011;31029;40.760;14.022;2022-07-23T01:51:55;475.05;;;429.73;;
44422;SDS011;31029;40.760;14.022;2022-07-23T01:54:27;464.27;;;419.23;;
44422;SDS011;31029;40.760;14.022;2022-07-23T01:56:53;493.00;;;447.23;;
44422;SDS011;31029;40.760;14.022;2022-07-23T01:59:18;480.27;;;434.73;;
44422;SDS011;31029;40.760;14.022;2022-07-23T02:01:44;470.00;;;424.92;;
44422;SDS011;31029;40.760;14.022;2022-07-23T02:04:11;475.33;;;430.25;;
44422;SDS011;31029;40.760;14.022;2022-07-23T02:06:37;481.58;;;436.30;;
44422;SDS011;31029;40.760;14.022;2022-07-23T02:09:02;476.67;;;431.60;;
44422;SDS011;31029;40.760;14.022;2022-07-23T02:11:28;476.75;;;431.58;;
44422;SDS011;31029;40.760;14.022;2022-07-23T02:13:54;478.15;;;432.83;;
44422;SDS011;31029;40.760;14.022;2022-07-23T02:16:20;482.88;;;437.58;;
44422;SDS011;31029;40.760;14.022;2022-07-23T02:18:45;483.50;;;438.08;;
44422;SDS011;31029;40.760;14.022;2022-07-23T02:21:11;487.15;;;441.75;;
44422;SDS011;31029;40.760;14.022;2022-07-23T02:23:37;470.70;;;425.25;;
44422;SDS011;31029;40.760;14.022;2022-07-23T02:26:03;488.02;;;442.42;;
44422;SDS011;31029;40.760;14.022;2022-07-23T02:28:29;484.58;;;439.13;;
44422;SDS011;31029;40.760;14.022;2022-07-23T02:30:55;469.63;;;424.58;;
44422;SDS011;31029;40.760;14.022;2022-07-23T02:33:20;485.02;;;439.42;;
44422;SDS011;31029;40.760;14.022;2022-07-23T02:35:46;474.85;;;429.55;;
44422;SDS011;31029;40.760;14.022;2022-07-23T02:38:18;484.50;;;438.83;;
44422;SDS011;31029;40.760;14.022;2022-07-23T02:40:44;480.60;;;435.17;;
44422;SDS011;31029;40.760;14.022;2022-07-23T02:43:10;484.15;;;438.73;;
44422;SDS011;31029;40.760;14.022;2022-07-23T02:45:36;491.42;;;445.58;;
44422;SDS011;31029;40.760;14.022;2022-07-23T02:48:01;476.77;;;431.42;;
44422;SDS011;31029;40.760;14.022;2022-07-23T02:50:27;482.35;;;436.98;;
44422;SDS011;31029;40.760;14.022;2022-07-23T02:52:53;483.13;;;437.80;;
44422;SDS011;31029;40.760;14.022;2022-07-23T02:55:19;480.27;;;435.15;;
44422;SDS011;31029;40.760;14.022;2022-07-23T02:57:45;484.23;;;439.02;;
44422;SDS011;31029;40.760;14.022;2022-07-23T03:00:11;485.10;;;439.65;;
44422;SDS011;31029;40.760;14.022;2022-07-23T03:02:37;477.73;;;432.60;;
44422;SDS011;31029;40.760;14.022;2022-07-23T03:05:02;481.83;;;436.30;;
44422;SDS011;31029;40.760;14.022;2022-07-23T03:07:28;477.92;;;432.52;;
44422;SDS011;31029;40.760;14.022;2022-07-23T03:09:54;464.45;;;419.20;;
44422;SDS011;31029;40.760;14.022;2022-07-23T03:12:20;470.67;;;425.38;;
44422;SDS011;31029;40.760;14.022;2022-07-23T03:14:46;475.27;;;429.73;;
44422;SDS011;31029;40.760;14.022;2022-07-23T03:17:12;484.60;;;439.05;;
44422;SDS011;31029;40.760;14.022;2022-07-23T03:19:38;474.02;;;428.67;;
44422;SDS011;31029;40.760;14.022;2022-07-23T03:22:03;466.15;;;420.85;;
44422;SDS011;31029;40.760;14.022;2022-07-23T03:24:29;485.65;;;440.05;;
44422;SDS011;31029;40.760;14.022;2022-07-23T03:27:13;480.33;;;435.00;;
44422;SDS011;31029;40.760;14.022;2022-07-23T03:29:38;481.92;;;436.40;;
44422;SDS011;31029;40.760;14.022;2022-07-23T03:32:04;480.25;;;434.73;;
44422;SDS011;31029;40.760;14.022;2022-07-23T03:34:30;454.95;;;409.85;;
44422;SDS011;31029;40.760;14.022;2022-07-23T03:36:56;465.85;;;420.30;;
44422;SDS011;31029;40.760;14.022;2022-07-23T03:39:22;470.17;;;424.65;;
44422;SDS011;31029;40.760;14.022;2022-07-23T03:41:48;466.25;;;420.60;;
44422;SDS011;31029;40.760;14.022;2022-07-23T03:44:13;464.25;;;419.10;;
44422;SDS011;31029;40.760;14.022;2022-07-23T03:46:39;484.38;;;438.63;;
44422;SDS011;31029;40.760;14.022;2022-07-23T03:49:05;478.00;;;432.33;;
44422;SDS011;31029;40.760;14.022;2022-07-23T03:51:31;467.23;;;422.02;;
44422;SDS011;31029;40.760;14.022;2022-07-23T03:53:57;474.63;;;429.15;;
44422;SDS011;31029;40.760;14.022;2022-07-23T03:56:23;480.23;;;434.92;;
44422;SDS011;31029;40.760;14.022;2022-07-23T03:58:49;477.10;;;431.70;;
44422;SDS011;31029;40.760;14.022;2022-07-23T04:01:14;478.02;;;432.38;;
44422;SDS011;31029;40.760;14.022;2022-07-23T04:03:41;483.80;;;437.48;;
44422;SDS011;31029;40.760;14.022;2022-07-23T04:06:06;486.25;;;440.75;;
44422;SDS011;31029;40.760;14.022;2022-07-23T04:08:32;477.52;;;431.67;;
44422;SDS011;31029;40.760;14.022;2022-07-23T04:10:58;481.17;;;435.65;;
44422;SDS011;31029;40.760;14.022;2022-07-23T04:13:24;480.50;;;434.75;;
44422;SDS011;31029;40.760;14.022;2022-07-23T04:15:50;464.73;;;419.40;;
44422;SDS011;31029;40.760;14.022;2022-07-23T04:18:16;479.13;;;433.63;;
44422;SDS011;31029;40.760;14.022;2022-07-23T04:20:43;479.70;;;434.35;;
44422;SDS011;31029;40.760;14.022;2022-07-23T04:23:09;476.38;;;430.92;;
44422;SDS011;31029;40.760;14.022;2022-07-23T04:25:35;480.13;;;434.52;;
44422;SDS011;31029;40.760;14.022;2022-07-23T04:28:01;482.55;;;436.98;;
44422;SDS011;31029;40.760;14.022;2022-07-23T04:30:27;481.98;;;436.55;;
44422;SDS011;31029;40.760;14.022;2022-07-23T04:32:54;484.00;;;438.48;;
44422;SDS011;31029;40.760;14.022;2022-07-23T04:35:20;476.30;;;430.88;;
44422;SDS011;31029;40.760;14.022;2022-07-23T04:37:46;483.65;;;438.25;;
44422;SDS011;31029;40.760;14.022;2022-07-23T04:40:12;485.88;;;440.02;;
44422;SDS011;31029;40.760;14.022;2022-07-23T04:42:38;472.15;;;426.77;;
44422;SDS011;31029;40.760;14.022;2022-07-23T04:45:04;479.20;;;433.70;;
44422;SDS011;31029;40.760;14.022;2022-07-23T04:47:30;474.92;;;429.45;;
44422;SDS011;31029;40.760;14.022;2022-07-23T04:49:56;477.08;;;431.85;;
44422;SDS011;31029;40.760;14.022;2022-07-23T04:52:21;471.55;;;426.30;;
44422;SDS011;31029;40.760;14.022;2022-07-23T04:54:47;484.58;;;438.73;;
44422;SDS011;31029;40.760;14.022;2022-07-23T04:57:13;483.15;;;437.70;;
44422;SDS011;31029;40.760;14.022;2022-07-23T04:59:38;489.30;;;443.30;;
44422;SDS011;31029;40.760;14.022;2022-07-23T05:02:04;466.10;;;420.85;;
44422;SDS011;31029;40.760;14.022;2022-07-23T05:04:29;479.17;;;433.83;;
44422;SDS011;31029;40.760;14.022;2022-07-23T05:06:54;474.85;;;429.52;;
44422;SDS011;31029;40.760;14.022;2022-07-23T05:09:20;478.30;;;432.88;;
44422;SDS011;31029;40.760;14.022;2022-07-23T05:11:45;487.35;;;441.95;;
44422;SDS011;31029;40.760;14.022;2022-07-23T05:14:11;477.45;;;432.15;;
44422;SDS011;31029;40.760;14.022;2022-07-23T05:16:38;477.50;;;432.08;;
44422;SDS011;31029;40.760;14.022;2022-07-23T05:19:03;492.25;;;446.88;;
44422;SDS011;31029;40.760;14.022;2022-07-23T05:21:29;489.17;;;443.85;;
44422;SDS011;31029;40.760;14.022;2022-07-23T05:23:55;470.60;;;425.48;;
44422;SDS011;31029;40.760;14.022;2022-07-23T05:26:20;488.48;;;443.10;;
44422;SDS011;31029;40.760;14.022;2022-07-23T05:28:46;490.15;;;444.77;;
44422;SDS011;31029;40.760;14.022;2022-07-23T05:31:12;470.35;;;425.20;;
44422;SDS011;31029;40.760;14.022;2022-07-23T05:33:38;467.05;;;422.13;;
44422;SDS011;31029;40.760;14.022;2022-07-23T05:36:04;482.10;;;436.92;;
44422;SDS011;31029;40.760;14.022;2022-07-23T05:38:30;481.63;;;436.17;;
44422;SDS011;31029;40.760;14.022;2022-07-23T05:40:57;483.45;;;438.13;;
44422;SDS011;31029;40.760;14.022;2022-07-23T05:43:22;479.67;;;434.40;;
44422;SDS011;31029;40.760;14.022;2022-07-23T05:45:47;468.02;;;422.60;;
44422;SDS011;31029;40.760;14.022;2022-07-23T05:48:14;466.38;;;421.27;;
44422;SDS011;31029;40.760;14.022;2022-07-23T05:50:39;486.05;;;440.55;;
44422;SDS011;31029;40.760;14.022;2022-07-23T05:53:05;466.00;;;421.13;;
44422;SDS011;31029;40.760;14.022;2022-07-23T05:55:31;475.33;;;430.10;;
44422;SDS011;31029;40.760;14.022;2022-07-23T05:57:58;485.33;;;439.88;;
44422;SDS011;31029;40.760;14.022;2022-07-23T06:00:24;475.98;;;430.63;;
44422;SDS011;31029;40.760;14.022;2022-07-23T06:02:50;475.10;;;429.90;;
44422;SDS011;31029;40.760;14.022;2022-07-23T06:05:15;485.17;;;439.75;;
44422;SDS011;31029;40.760;14.022;2022-07-23T06:07:41;476.80;;;431.70;;
44422;SDS011;31029;40.760;14.022;2022-07-23T06:10:07;480.85;;;435.73;;
44422;SDS011;31029;40.760;14.022;2022-07-23T06:12:33;485.88;;;440.40;;
44422;SDS011;31029;40.760;14.022;2022-07-23T06:14:58;482.27;;;436.73;;
44422;SDS011;31029;40.760;14.022;2022-07-23T06:17:24;486.98;;;441.55;;
44422;SDS011;31029;40.760;14.022;2022-07-23T06:19:49;482.13;;;436.55;;
44422;SDS011;31029;40.760;14.022;2022-07-23T06:22:15;475.23;;;430.10;;
44422;SDS011;31029;40.760;14.022;2022-07-23T06:24:41;488.63;;;443.25;;
44422;SDS011;31029;40.760;14.022;2022-07-23T06:27:07;484.33;;;438.92;;
44422;SDS011;31029;40.760;14.022;2022-07-23T06:29:32;494.35;;;448.95;;
44422;SDS011;31029;40.760;14.022;2022-07-23T06:31:57;493.05;;;447.60;;
44422;SDS011;31029;40.760;14.022;2022-07-23T06:34:23;497.83;;;452.27;;
44422;SDS011;31029;40.760;14.022;2022-07-23T06:36:49;501.65;;;455.85;;
44422;SDS011;31029;40.760;14.022;2022-07-23T06:39:15;482.40;;;437.13;;
44422;SDS011;31029;40.760;14.022;2022-07-23T06:41:41;497.13;;;451.60;;
44422;SDS011;31029;40.760;14.022;2022-07-23T06:44:07;497.98;;;452.27;;
44422;SDS011;31029;40.760;14.022;2022-07-23T06:46:33;501.83;;;455.95;;
44422;SDS011;31029;40.760;14.022;2022-07-23T06:48:58;507.00;;;461.48;;
44422;SDS011;31029;40.760;14.022;2022-07-23T06:51:24;493.63;;;448.08;;
44422;SDS011;31029;40.760;14.022;2022-07-23T06:53:50;509.10;;;463.27;;
44422;SDS011;31029;40.760;14.022;2022-07-23T06:56:16;504.75;;;458.80;;
44422;SDS011;31029;40.760;14.022;2022-07-23T06:58:42;506.10;;;460.23;;
44422;SDS011;31029;40.760;14.022;2022-07-23T07:01:07;506.67;;;460.90;;
44422;SDS011;31029;40.760;14.022;2022-07-23T07:03:33;498.67;;;452.83;;
44422;SDS011;31029;40.760;14.022;2022-07-23T07:06:00;495.95;;;450.40;;
44422;SDS011;31029;40.760;14.022;2022-07-23T07:08:25;495.35;;;449.77;;
44422;SDS011;31029;40.760;14.022;2022-07-23T07:10:51;507.85;;;461.90;;
44422;SDS011;31029;40.760;14.022;2022-07-23T07:13:17;492.52;;;447.10;;
44422;SDS011;31029;40.760;14.022;2022-07-23T07:15:43;507.05;;;460.55;;
44422;SDS011;31029;40.760;14.022;2022-07-23T07:18:09;510.88;;;463.85;;
44422;SDS011;31029;40.760;14.022;2022-07-23T07:20:35;493.23;;;447.75;;
44422;SDS011;31029;40.760;14.022;2022-07-23T07:23:01;486.25;;;440.80;;
44422;SDS011;31029;40.760;14.022;2022-07-23T07:25:27;511.63;;;465.90;;
44422;SDS011;31029;40.760;14.022;2022-07-23T07:27:53;500.40;;;454.63;;
44422;SDS011;31029;40.760;14.022;2022-07-23T07:30:19;510.08;;;464.25;;
44422;SDS011;31029;40.760;14.022;2022-07-23T07:32:44;492.20;;;446.77;;
44422;SDS011;31029;40.760;14.022;2022-07-23T07:35:10;488.25;;;442.67;;
44422;SDS011;31029;40.760;14.022;2022-07-23T07:37:36;499.15;;;453.30;;
44422;SDS011;31029;40.760;14.022;2022-07-23T07:40:01;494.40;;;448.80;;
44422;SDS011;31029;40.760;14.022;2022-07-23T07:42:27;497.70;;;452.08;;
44422;SDS011;31029;40.760;14.022;2022-07-23T07:44:53;492.40;;;446.63;;
44422;SDS011;31029;40.760;14.022;2022-07-23T07:47:19;434.80;;;389.60;;
44422;SDS011;31029;40.760;14.022;2022-07-23T07:49:45;492.58;;;446.77;;
44422;SDS011;31029;40.760;14.022;2022-07-23T07:52:10;466.70;;;421.05;;
44422;SDS011;31029;40.760;14.022;2022-07-23T07:54:37;443.35;;;398.10;;
44422;SDS011;31029;40.760;14.022;2022-07-23T07:57:02;479.25;;;433.73;;
44422;SDS011;31029;40.760;14.022;2022-07-23T07:59:28;490.00;;;444.30;;
44422;SDS011;31029;40.760;14.022;2022-07-23T08:01:54;500.23;;;454.45;;
44422;SDS011;31029;40.760;14.022;2022-07-23T08:04:20;501.02;;;455.20;;
44422;SDS011;31029;40.760;14.022;2022-07-23T08:06:46;506.65;;;460.52;;
44422;SDS011;31029;40.760;14.022;2022-07-23T08:09:12;504.08;;;458.27;;
44422;SDS011;31029;40.760;14.022;2022-07-23T08:11:38;501.50;;;455.67;;
44422;SDS011;31029;40.760;14.022;2022-07-23T08:14:04;483.58;;;437.98;;
44422;SDS011;31029;40.760;14.022;2022-07-23T08:16:29;494.35;;;448.52;;
44422;SDS011;31029;40.760;14.022;2022-07-23T08:18:56;493.38;;;447.52;;
44422;SDS011;31029;40.760;14.022;2022-07-23T08:21:22;484.88;;;439.20;;
44422;SDS011;31029;40.760;14.022;2022-07-23T08:23:47;495.67;;;449.73;;
44422;SDS011;31029;40.760;14.022;2022-07-23T08:26:13;491.50;;;445.70;;
44422;SDS011;31029;40.760;14.022;2022-07-23T08:28:39;487.17;;;441.63;;
44422;SDS011;31029;40.760;14.022;2022-07-23T08:31:04;471.45;;;425.98;;
44422;SDS011;31029;40.760;14.022;2022-07-23T08:33:30;480.27;;;434.80;;
44422;SDS011;31029;40.760;14.022;2022-07-23T08:35:56;484.55;;;439.08;;
44422;SDS011;31029;40.760;14.022;2022-07-23T08:38:21;497.17;;;451.23;;
44422;SDS011;31029;40.760;14.022;2022-07-23T08:40:50;493.42;;;447.60;;
44422;SDS011;31029;40.760;14.022;2022-07-23T08:43:17;498.67;;;452.58;;
44422;SDS011;31029;40.760;14.022;2022-07-23T08:45:44;489.83;;;444.15;;
44422;SDS011;31029;40.760;14.022;2022-07-23T08:48:13;490.00;;;444.48;;
44422;SDS011;31029;40.760;14.022;2022-07-23T08:50:41;489.90;;;444.25;;
44422;SDS011;31029;40.760;14.022;2022-07-23T08:53:07;486.30;;;440.77;;
44422;SDS011;31029;40.760;14.022;2022-07-23T08:55:33;497.95;;;452.35;;
44422;SDS011;31029;40.760;14.022;2022-07-23T08:58:00;495.85;;;450.08;;
44422;SDS011;31029;40.760;14.022;2022-07-23T09:00:26;495.02;;;449.45;;
44422;SDS011;31029;40.760;14.022;2022-07-23T09:02:52;495.95;;;449.90;;
44422;SDS011;31029;40.760;14.022;2022-07-23T09:05:17;488.58;;;443.17;;
44422;SDS011;31029;40.760;14.022;2022-07-23T09:10:29;496.42;;;450.65;;
44422;SDS011;31029;40.760;14.022;2022-07-23T09:12:55;516.63;;;470.38;;
44422;SDS011;31029;40.760;14.022;2022-07-23T09:15:20;506.70;;;460.65;;
44422;SDS011;31029;40.760;14.022;2022-07-23T09:17:46;499.42;;;453.70;;
44422;SDS011;31029;40.760;14.022;2022-07-23T09:20:15;506.15;;;460.08;;
44422;SDS011;31029;40.760;14.022;2022-07-23T09:22:57;506.95;;;461.15;;
44422;SDS011;31029;40.760;14.022;2022-07-23T09:25:23;515.55;;;469.30;;
44422;SDS011;31029;40.760;14.022;2022-07-23T09:27:50;500.90;;;455.25;;
44422;SDS011;31029;40.760;14.022;2022-07-23T09:30:21;507.55;;;461.73;;
44422;SDS011;31029;40.760;14.022;2022-07-23T09:38:29;503.15;;;457.10;;
44422;SDS011;31029;40.760;14.022;2022-07-23T09:41:05;495.55;;;449.30;;
44422;SDS011;31029;40.760;14.022;2022-07-23T09:43:31;489.02;;;443.27;;
44422;SDS011;31029;40.760;14.022;2022-07-23T09:48:48;486.90;;;441.02;;
44422;SDS011;31029;40.760;14.022;2022-07-23T09:51:14;480.05;;;434.55;;
44422;SDS011;31029;40.760;14.022;2022-07-23T09:53:43;474.77;;;429.27;;
44422;SDS011;31029;40.760;14.022;2022-07-23T09:56:08;462.23;;;416.48;;
44422;SDS011;31029;40.760;14.022;2022-07-23T09:58:37;483.23;;;437.63;;
44422;SDS011;31029;40.760;14.022;2022-07-23T10:01:10;517.10;;;470.90;;
44422;SDS011;31029;40.760;14.022;2022-07-23T10:03:36;449.83;;;404.73;;
44422;SDS011;31029;40.760;14.022;2022-07-23T10:06:02;522.40;;;476.48;;
44422;SDS011;31029;40.760;14.022;2022-07-23T10:08:28;520.60;;;474.48;;
44422;SDS011;31029;40.760;14.022;2022-07-23T10:10:56;525.47;;;479.38;;
44422;SDS011;31029;40.760;14.022;2022-07-23T10:13:22;525.80;;;480.13;;
44422;SDS011;31029;40.760;14.022;2022-07-23T10:16:08;523.60;;;477.90;;
44422;SDS011;31029;40.760;14.022;2022-07-23T10:18:34;501.42;;;455.95;;
44422;SDS011;31029;40.760;14.022;2022-07-23T10:20:59;516.70;;;471.25;;
44422;SDS011;31029;40.760;14.022;2022-07-23T10:23:45;525.33;;;479.50;;
44422;SDS011;31029;40.760;14.022;2022-07-23T10:26:22;510.98;;;465.58;;
44422;SDS011;31029;40.760;14.022;2022-07-23T10:36:42;516.85;;;471.35;;
44422;SDS011;31029;40.760;14.022;2022-07-23T10:41:40;521.97;;;476.17;;
44422;SDS011;31029;40.760;14.022;2022-07-23T10:44:32;504.60;;;459.20;;
44422;SDS011;31029;40.760;14.022;2022-07-23T10:47:00;523.28;;;477.40;;
44422;SDS011;31029;40.760;14.022;2022-07-23T10:49:44;520.25;;;474.55;;
44422;SDS011;31029;40.760;14.022;2022-07-23T10:54:42;526.28;;;480.38;;
44422;SDS011;31029;40.760;14.022;2022-07-23T10:57:08;529.20;;;483.30;;
44422;SDS011;31029;40.760;14.022;2022-07-23T11:02:22;526.13;;;480.85;;
44422;SDS011;31029;40.760;14.022;2022-07-23T11:04:52;516.92;;;471.88;;
44422;SDS011;31029;40.760;14.022;2022-07-23T11:07:17;520.97;;;475.75;;
44422;SDS011;31029;40.760;14.022;2022-07-23T11:09:43;516.42;;;470.90;;
44422;SDS011;31029;40.760;14.022;2022-07-23T11:17:22;508.88;;;463.80;;
44422;SDS011;31029;40.760;14.022;2022-07-23T11:22:36;518.60;;;472.95;;
44422;SDS011;31029;40.760;14.022;2022-07-23T11:25:02;522.80;;;477.20;;
44422;SDS011;31029;40.760;14.022;2022-07-23T11:27:41;515.67;;;470.60;;
44422;SDS011;31029;40.760;14.022;2022-07-23T11:30:08;518.47;;;473.20;;
44422;SDS011;31029;40.760;14.022;2022-07-23T11:32:38;524.67;;;478.95;;
44422;SDS011;31029;40.760;14.022;2022-07-23T11:35:23;508.95;;;463.77;;
44422;SDS011;31029;40.760;14.022;2022-07-23T11:37:49;516.20;;;470.88;;
44422;SDS011;31029;40.760;14.022;2022-07-23T11:40:19;511.60;;;466.63;;
44422;SDS011;31029;40.760;14.022;2022-07-23T11:42:59;529.20;;;483.73;;
44422;SDS011;31029;40.760;14.022;2022-07-23T11:45:29;515.35;;;470.05;;
44422;SDS011;31029;40.760;14.022;2022-07-23T11:47:55;509.73;;;464.40;;
44422;SDS011;31029;40.760;14.022;2022-07-23T11:50:22;513.38;;;468.33;;
44422;SDS011;31029;40.760;14.022;2022-07-23T11:52:48;528.97;;;483.52;;
44422;SDS011;31029;40.760;14.022;2022-07-23T11:55:15;526.67;;;481.33;;
44422;SDS011;31029;40.760;14.022;2022-07-23T11:57:42;519.60;;;474.33;;
44422;SDS011;31029;40.760;14.022;2022-07-23T12:00:16;518.38;;;473.02;;
44422;SDS011;31029;40.760;14.022;2022-07-23T12:02:44;525.63;;;480.05;;
44422;SDS011;31029;40.760;14.022;2022-07-23T12:05:14;537.45;;;491.88;;
44422;SDS011;31029;40.760;14.022;2022-07-23T12:07:40;524.65;;;479.17;;
44422;SDS011;31029;40.760;14.022;2022-07-23T12:10:48;526.90;;;481.33;;
44422;SDS011;31029;40.760;14.022;2022-07-23T12:12:58;536.33;;;490.83;;
44422;SDS011;31029;40.760;14.022;2022-07-23T12:15:27;542.60;;;496.58;;
44422;SDS011;31029;40.760;14.022;2022-07-23T12:17:56;554.33;;;508.10;;
44422;SDS011;31029;40.760;14.022;2022-07-23T12:20:23;534.80;;;489.20;;
44422;SDS011;31029;40.760;14.022;2022-07-23T12:22:50;520.47;;;475.05;;
44422;SDS011;31029;40.760;14.022;2022-07-23T12:25:20;533.40;;;487.52;;
44422;SDS011;31029;40.760;14.022;2022-07-23T12:32:57;530.70;;;485.25;;
44422;SDS011;31029;40.760;14.022;2022-07-23T12:35:29;525.22;;;479.63;;
44422;SDS011;31029;40.760;14.022;2022-07-23T12:37:59;523.90;;;478.27;;
44422;SDS011;31029;40.760;14.022;2022-07-23T12:40:26;522.42;;;476.98;;
44422;SDS011;31029;40.760;14.022;2022-07-23T12:45:23;544.22;;;498.33;;
44422;SDS011;31029;40.760;14.022;2022-07-23T12:47:50;535.70;;;489.88;;
44422;SDS011;31029;40.760;14.022;2022-07-23T12:50:34;535.28;;;489.52;;
44422;SDS011;31029;40.760;14.022;2022-07-23T12:53:10;518.20;;;472.88;;
44422;SDS011;31029;40.760;14.022;2022-07-23T12:55:37;525.65;;;480.02;;
44422;SDS011;31029;40.760;14.022;2022-07-23T12:58:03;544.22;;;498.40;;
44422;SDS011;31029;40.760;14.022;2022-07-23T13:00:29;536.30;;;490.38;;
44422;SDS011;31029;40.760;14.022;2022-07-23T13:02:55;528.30;;;482.88;;
44422;SDS011;31029;40.760;14.022;2022-07-23T13:05:20;530.75;;;485.20;;
44422;SDS011;31029;40.760;14.022;2022-07-23T13:07:46;536.80;;;491.17;;
44422;SDS011;31029;40.760;14.022;2022-07-23T13:10:12;540.17;;;494.42;;
44422;SDS011;31029;40.760;14.022;2022-07-23T13:12:38;547.53;;;501.77;;
44422;SDS011;31029;40.760;14.022;2022-07-23T13:15:04;533.03;;;487.48;;
44422;SDS011;31029;40.760;14.022;2022-07-23T13:17:31;532.53;;;487.10;;
44422;SDS011;31029;40.760;14.022;2022-07-23T13:19:57;545.38;;;499.48;;
44422;SDS011;31029;40.760;14.022;2022-07-23T13:22:22;534.42;;;488.92;;
44422;SDS011;31029;40.760;14.022;2022-07-23T13:24:48;553.55;;;507.40;;
44422;SDS011;31029;40.760;14.022;2022-07-23T13:27:13;547.40;;;501.38;;
44422;SDS011;31029;40.760;14.022;2022-07-23T13:29:39;529.97;;;484.48;;
44422;SDS011;31029;40.760;14.022;2022-07-23T13:32:04;558.75;;;512.13;;
44422;SDS011;31029;40.760;14.022;2022-07-23T13:34:31;549.15;;;503.23;;
44422;SDS011;31029;40.760;14.022;2022-07-23T13:36:57;550.88;;;504.88;;
44422;SDS011;31029;40.760;14.022;2022-07-23T13:39:22;543.13;;;497.02;;
44422;SDS011;31029;40.760;14.022;2022-07-23T13:41:48;566.42;;;520.22;;
44422;SDS011;31029;40.760;14.022;2022-07-23T13:44:14;559.58;;;513.60;;
44422;SDS011;31029;40.760;14.022;2022-07-23T13:46:39;542.17;;;496.48;;
44422;SDS011;31029;40.760;14.022;2022-07-23T13:49:05;543.03;;;497.42;;
44422;SDS011;31029;40.760;14.022;2022-07-23T13:51:31;546.30;;;500.55;;
44422;SDS011;31029;40.760;14.022;2022-07-23T13:53:57;571.00;;;524.75;;
44422;SDS011;31029;40.760;14.022;2022-07-23T13:56:24;544.08;;;498.08;;
44422;SDS011;31029;40.760;14.022;2022-07-23T13:58:50;538.72;;;493.05;;
44422;SDS011;31029;40.760;14.022;2022-07-23T14:01:16;546.53;;;500.45;;
44422;SDS011;31029;40.760;14.022;2022-07-23T14:03:41;541.13;;;495.55;;
44422;SDS011;31029;40.760;14.022;2022-07-23T14:06:07;545.08;;;499.33;;
44422;SDS011;31029;40.760;14.022;2022-07-23T14:08:33;539.22;;;493.48;;
44422;SDS011;31029;40.760;14.022;2022-07-23T14:10:58;542.95;;;497.05;;
44422;SDS011;31029;40.760;14.022;2022-07-23T14:13:24;560.20;;;514.15;;
44422;SDS011;31029;40.760;14.022;2022-07-23T14:15:49;561.35;;;515.10;;
44422;SDS011;31029;40.760;14.022;2022-07-23T14:18:15;563.83;;;517.47;;
44422;SDS011;31029;40.760;14.022;2022-07-23T14:20:41;547.80;;;502.05;;
44422;SDS011;31029;40.760;14.022;2022-07-23T14:23:07;567.60;;;521.40;;
44422;SDS011;31029;40.760;14.022;2022-07-23T14:25:33;553.20;;;507.27;;